sensor_id;sensor_type;location;lat;lon;timestamp;temperature;humidity
72883;DHT22;61017;37.812;-122.286;2023-04-03T00:01:06;14.10;80.80
72883;DHT22;61017;37.812;-122.286;2023-04-03T00:02:38;14.10;80.90
72883;DHT22;61017;37.812;-122.286;2023-04-03T00:04:09;14.10;80.80
72883;DHT22;61017;37.812;-122.286;2023-04-03T00:05:40;14.10;80.90
72883;DHT22;61017;37.812;-122.286;2023-04-03T00:07:11;14.10;80.80
72883;DHT22;61017;37.812;-122.286;2023-04-03T00:08:42;14.10;81.70
72883;DHT22;61017;37.812;-122.286;2023-04-03T00:10:13;14.10;80.90
72883;DHT22;61017;37.812;-122.286;2023-04-03T00:11:45;14.10;80.90
72883;DHT22;61017;37.812;-122.286;2023-04-03T00:13:16;14.10;80.90
72883;DHT22;61017;37.812;-122.286;2023-04-03T00:14:47;14.10;80.80
72883;DHT22;61017;37.812;-122.286;2023-04-03T00:16:18;14.10;80.70
72883;DHT22;61017;37.812;-122.286;2023-04-03T00:17:49;14.10;80.70
72883;DHT22;61017;37.812;-122.286;2023-04-03T00:19:20;14.10;80.60
72883;DHT22;61017;37.812;-122.286;2023-04-03T00:20:51;14.10;80.70
72883;DHT22;61017;37.812;-122.286;2023-04-03T00:22:22;14.10;80.60
72883;DHT22;61017;37.812;-122.286;2023-04-03T00:23:53;14.10;80.60
72883;DHT22;61017;37.812;-122.286;2023-04-03T00:25:24;14.10;80.60
72883;DHT22;61017;37.812;-122.286;2023-04-03T00:26:55;14.10;80.60
72883;DHT22;61017;37.812;-122.286;2023-04-03T00:28:26;14.10;80.50
72883;DHT22;61017;37.812;-122.286;2023-04-03T00:29:58;14.10;80.60
72883;DHT22;61017;37.812;-122.286;2023-04-03T00:31:29;14.10;80.70
72883;DHT22;61017;37.812;-122.286;2023-04-03T00:33:00;14.10;80.70
72883;DHT22;61017;37.812;-122.286;2023-04-03T00:34:31;14.10;80.80
72883;DHT22;61017;37.812;-122.286;2023-04-03T00:36:08;14.10;80.80
72883;DHT22;61017;37.812;-122.286;2023-04-03T00:37:40;14.10;80.80
72883;DHT22;61017;37.812;-122.286;2023-04-03T00:39:11;14.10;80.90
72883;DHT22;61017;37.812;-122.286;2023-04-03T00:40:46;14.10;80.80
72883;DHT22;61017;37.812;-122.286;2023-04-03T00:42:17;14.10;80.90
72883;DHT22;61017;37.812;-122.286;2023-04-03T00:43:49;14.10;81.00
72883;DHT22;61017;37.812;-122.286;2023-04-03T00:45:31;14.10;81.00
72883;DHT22;61017;37.812;-122.286;2023-04-03T00:47:03;14.10;81.00
72883;DHT22;61017;37.812;-122.286;2023-04-03T00:48:38;14.10;81.00
72883;DHT22;61017;37.812;-122.286;2023-04-03T00:50:10;14.10;81.10
72883;DHT22;61017;37.812;-122.286;2023-04-03T00:51:41;14.10;81.10
72883;DHT22;61017;37.812;-122.286;2023-04-03T00:53:17;14.10;81.30
72883;DHT22;61017;37.812;-122.286;2023-04-03T00:54:50;14.10;81.20
72883;DHT22;61017;37.812;-122.286;2023-04-03T00:56:23;14.10;81.30
72883;DHT22;61017;37.812;-122.286;2023-04-03T00:57:54;14.10;81.30
72883;DHT22;61017;37.812;-122.286;2023-04-03T00:59:27;14.10;81.20
72883;DHT22;61017;37.812;-122.286;2023-04-03T01:01:01;14.10;81.30
72883;DHT22;61017;37.812;-122.286;2023-04-03T01:02:34;14.10;81.30
72883;DHT22;61017;37.812;-122.286;2023-04-03T01:04:05;14.10;81.30
72883;DHT22;61017;37.812;-122.286;2023-04-03T01:05:36;14.10;81.40
72883;DHT22;61017;37.812;-122.286;2023-04-03T01:07:23;14.10;81.40
72883;DHT22;61017;37.812;-122.286;2023-04-03T01:08:55;14.10;81.40
72883;DHT22;61017;37.812;-122.286;2023-04-03T01:10:26;14.10;81.40
72883;DHT22;61017;37.812;-122.286;2023-04-03T01:12:17;14.20;81.40
72883;DHT22;61017;37.812;-122.286;2023-04-03T01:13:48;14.10;81.40
72883;DHT22;61017;37.812;-122.286;2023-04-03T01:15:21;14.10;81.30
72883;DHT22;61017;37.812;-122.286;2023-04-03T01:16:57;14.10;81.40
72883;DHT22;61017;37.812;-122.286;2023-04-03T01:18:28;14.10;81.50
72883;DHT22;61017;37.812;-122.286;2023-04-03T01:25:13;14.10;81.40
72883;DHT22;61017;37.812;-122.286;2023-04-03T01:26:44;14.10;81.40
72883;DHT22;61017;37.812;-122.286;2023-04-03T01:28:17;14.10;81.30
72883;DHT22;61017;37.812;-122.286;2023-04-03T01:29:49;14.10;81.30
72883;DHT22;61017;37.812;-122.286;2023-04-03T01:32:51;14.10;81.30
72883;DHT22;61017;37.812;-122.286;2023-04-03T01:34:22;14.10;81.40
72883;DHT22;61017;37.812;-122.286;2023-04-03T01:35:56;14.10;81.30
72883;DHT22;61017;37.812;-122.286;2023-04-03T01:37:27;14.10;81.40
72883;DHT22;61017;37.812;-122.286;2023-04-03T01:38:59;14.10;81.40
72883;DHT22;61017;37.812;-122.286;2023-04-03T01:40:30;14.10;81.30
72883;DHT22;61017;37.812;-122.286;2023-04-03T01:42:01;14.10;81.50
72883;DHT22;61017;37.812;-122.286;2023-04-03T01:43:32;14.10;81.40
72883;DHT22;61017;37.812;-122.286;2023-04-03T01:45:03;14.10;81.40
72883;DHT22;61017;37.812;-122.286;2023-04-03T01:46:35;14.10;81.60
72883;DHT22;61017;37.812;-122.286;2023-04-03T01:48:06;14.10;81.50
72883;DHT22;61017;37.812;-122.286;2023-04-03T01:49:37;14.10;81.50
72883;DHT22;61017;37.812;-122.286;2023-04-03T01:51:08;14.10;81.40
72883;DHT22;61017;37.812;-122.286;2023-04-03T01:52:40;14.10;81.50
72883;DHT22;61017;37.812;-122.286;2023-04-03T01:54:11;14.10;81.60
72883;DHT22;61017;37.812;-122.286;2023-04-03T01:55:42;14.10;81.60
72883;DHT22;61017;37.812;-122.286;2023-04-03T01:57:13;14.10;81.50
72883;DHT22;61017;37.812;-122.286;2023-04-03T01:58:45;14.10;81.50
72883;DHT22;61017;37.812;-122.286;2023-04-03T02:00:16;14.10;81.50
72883;DHT22;61017;37.812;-122.286;2023-04-03T02:01:47;14.10;81.50
72883;DHT22;61017;37.812;-122.286;2023-04-03T02:03:18;14.10;81.50
72883;DHT22;61017;37.812;-122.286;2023-04-03T02:04:49;14.10;81.60
72883;DHT22;61017;37.812;-122.286;2023-04-03T02:06:21;14.10;81.50
72883;DHT22;61017;37.812;-122.286;2023-04-03T02:07:52;14.10;81.50
72883;DHT22;61017;37.812;-122.286;2023-04-03T02:09:23;14.10;81.50
72883;DHT22;61017;37.812;-122.286;2023-04-03T02:10:57;14.10;81.50
72883;DHT22;61017;37.812;-122.286;2023-04-03T02:12:31;14.10;82.30
72883;DHT22;61017;37.812;-122.286;2023-04-03T02:14:02;14.10;81.60
72883;DHT22;61017;37.812;-122.286;2023-04-03T02:15:33;14.10;81.60
72883;DHT22;61017;37.812;-122.286;2023-04-03T02:17:04;14.10;81.60
72883;DHT22;61017;37.812;-122.286;2023-04-03T02:18:35;14.10;81.50
72883;DHT22;61017;37.812;-122.286;2023-04-03T02:20:06;14.10;81.70
72883;DHT22;61017;37.812;-122.286;2023-04-03T02:21:38;14.10;81.60
72883;DHT22;61017;37.812;-122.286;2023-04-03T02:23:09;14.10;81.70
72883;DHT22;61017;37.812;-122.286;2023-04-03T02:24:40;14.10;81.60
72883;DHT22;61017;37.812;-122.286;2023-04-03T02:26:13;14.10;81.70
72883;DHT22;61017;37.812;-122.286;2023-04-03T02:27:44;14.10;81.90
72883;DHT22;61017;37.812;-122.286;2023-04-03T02:29:18;14.10;81.70
72883;DHT22;61017;37.812;-122.286;2023-04-03T02:30:49;14.10;81.70
72883;DHT22;61017;37.812;-122.286;2023-04-03T02:32:20;14.10;81.80
72883;DHT22;61017;37.812;-122.286;2023-04-03T02:33:51;14.10;81.80
72883;DHT22;61017;37.812;-122.286;2023-04-03T02:35:22;14.10;81.70
72883;DHT22;61017;37.812;-122.286;2023-04-03T02:36:53;14.10;81.80
72883;DHT22;61017;37.812;-122.286;2023-04-03T02:38:24;14.10;81.90
72883;DHT22;61017;37.812;-122.286;2023-04-03T02:39:57;14.10;81.80
72883;DHT22;61017;37.812;-122.286;2023-04-03T02:41:28;14.10;81.80
72883;DHT22;61017;37.812;-122.286;2023-04-03T02:42:59;14.10;81.80
72883;DHT22;61017;37.812;-122.286;2023-04-03T02:44:33;14.10;81.80
72883;DHT22;61017;37.812;-122.286;2023-04-03T02:46:04;14.10;82.00
72883;DHT22;61017;37.812;-122.286;2023-04-03T02:47:35;14.10;81.90
72883;DHT22;61017;37.812;-122.286;2023-04-03T02:49:07;14.10;81.90
72883;DHT22;61017;37.812;-122.286;2023-04-03T02:50:38;14.10;81.90
72883;DHT22;61017;37.812;-122.286;2023-04-03T02:52:09;14.10;81.80
72883;DHT22;61017;37.812;-122.286;2023-04-03T02:53:40;14.10;81.90
72883;DHT22;61017;37.812;-122.286;2023-04-03T02:55:13;14.10;81.90
72883;DHT22;61017;37.812;-122.286;2023-04-03T02:56:44;14.10;81.80
72883;DHT22;61017;37.812;-122.286;2023-04-03T02:58:17;14.10;81.90
72883;DHT22;61017;37.812;-122.286;2023-04-03T02:59:48;14.10;81.80
72883;DHT22;61017;37.812;-122.286;2023-04-03T03:01:19;14.10;82.60
72883;DHT22;61017;37.812;-122.286;2023-04-03T03:02:50;14.10;81.80
72883;DHT22;61017;37.812;-122.286;2023-04-03T03:04:21;14.10;81.70
72883;DHT22;61017;37.812;-122.286;2023-04-03T03:06:09;14.10;81.90
72883;DHT22;61017;37.812;-122.286;2023-04-03T03:07:40;14.10;82.10
72883;DHT22;61017;37.812;-122.286;2023-04-03T03:09:11;14.10;82.00
72883;DHT22;61017;37.812;-122.286;2023-04-03T03:10:42;14.10;81.90
72883;DHT22;61017;37.812;-122.286;2023-04-03T03:12:15;14.10;81.80
72883;DHT22;61017;37.812;-122.286;2023-04-03T03:13:46;14.10;81.90
72883;DHT22;61017;37.812;-122.286;2023-04-03T03:15:17;14.10;82.00
72883;DHT22;61017;37.812;-122.286;2023-04-03T03:16:49;14.10;82.20
72883;DHT22;61017;37.812;-122.286;2023-04-03T03:18:20;14.10;82.00
72883;DHT22;61017;37.812;-122.286;2023-04-03T03:19:52;14.10;82.10
72883;DHT22;61017;37.812;-122.286;2023-04-03T03:21:23;14.10;82.00
72883;DHT22;61017;37.812;-122.286;2023-04-03T03:22:54;14.10;82.10
72883;DHT22;61017;37.812;-122.286;2023-04-03T03:24:25;14.10;81.90
72883;DHT22;61017;37.812;-122.286;2023-04-03T03:26:00;14.10;81.80
72883;DHT22;61017;37.812;-122.286;2023-04-03T03:27:31;14.10;81.90
72883;DHT22;61017;37.812;-122.286;2023-04-03T03:29:02;14.10;81.80
72883;DHT22;61017;37.812;-122.286;2023-04-03T03:30:33;14.10;81.80
72883;DHT22;61017;37.812;-122.286;2023-04-03T03:32:05;14.10;81.40
72883;DHT22;61017;37.812;-122.286;2023-04-03T03:33:36;14.10;81.90
72883;DHT22;61017;37.812;-122.286;2023-04-03T03:35:08;14.10;81.80
72883;DHT22;61017;37.812;-122.286;2023-04-03T03:36:39;14.10;81.70
72883;DHT22;61017;37.812;-122.286;2023-04-03T03:38:11;14.10;81.80
72883;DHT22;61017;37.812;-122.286;2023-04-03T03:39:42;14.10;81.70
72883;DHT22;61017;37.812;-122.286;2023-04-03T03:41:13;14.10;81.60
72883;DHT22;61017;37.812;-122.286;2023-04-03T03:42:46;14.10;81.50
72883;DHT22;61017;37.812;-122.286;2023-04-03T03:44:20;14.10;82.30
72883;DHT22;61017;37.812;-122.286;2023-04-03T03:45:51;14.10;81.70
72883;DHT22;61017;37.812;-122.286;2023-04-03T03:47:24;14.10;81.60
72883;DHT22;61017;37.812;-122.286;2023-04-03T03:48:58;14.10;81.50
72883;DHT22;61017;37.812;-122.286;2023-04-03T03:50:29;14.10;81.60
72883;DHT22;61017;37.812;-122.286;2023-04-03T03:52:03;14.10;81.50
72883;DHT22;61017;37.812;-122.286;2023-04-03T03:53:36;14.10;81.50
72883;DHT22;61017;37.812;-122.286;2023-04-03T03:55:07;14.10;81.80
72883;DHT22;61017;37.812;-122.286;2023-04-03T03:56:39;14.10;81.60
72883;DHT22;61017;37.812;-122.286;2023-04-03T03:58:13;14.10;81.40
72883;DHT22;61017;37.812;-122.286;2023-04-03T03:59:44;14.10;81.50
72883;DHT22;61017;37.812;-122.286;2023-04-03T04:01:15;14.10;81.40
72883;DHT22;61017;37.812;-122.286;2023-04-03T04:02:46;14.10;81.40
72883;DHT22;61017;37.812;-122.286;2023-04-03T04:04:17;14.10;81.50
72883;DHT22;61017;37.812;-122.286;2023-04-03T04:05:48;14.10;81.30
72883;DHT22;61017;37.812;-122.286;2023-04-03T04:07:19;14.10;81.40
72883;DHT22;61017;37.812;-122.286;2023-04-03T04:08:50;14.10;81.40
72883;DHT22;61017;37.812;-122.286;2023-04-03T04:10:22;14.10;81.10
72883;DHT22;61017;37.812;-122.286;2023-04-03T04:11:53;14.10;80.90
72883;DHT22;61017;37.812;-122.286;2023-04-03T04:13:25;14.10;81.20
72883;DHT22;61017;37.812;-122.286;2023-04-03T04:46:45;14.10;79.20
72883;DHT22;61017;37.812;-122.286;2023-04-03T04:48:16;14.10;79.00
72883;DHT22;61017;37.812;-122.286;2023-04-03T04:49:47;14.10;79.00
72883;DHT22;61017;37.812;-122.286;2023-04-03T04:51:18;14.10;78.30
72883;DHT22;61017;37.812;-122.286;2023-04-03T04:52:49;14.10;78.60
72883;DHT22;61017;37.812;-122.286;2023-04-03T04:54:20;14.10;79.10
72883;DHT22;61017;37.812;-122.286;2023-04-03T04:55:52;14.10;78.70
72883;DHT22;61017;37.812;-122.286;2023-04-03T04:57:23;14.10;78.50
72883;DHT22;61017;37.812;-122.286;2023-04-03T04:58:54;14.10;78.50
72883;DHT22;61017;37.812;-122.286;2023-04-03T05:00:28;14.10;78.40
72883;DHT22;61017;37.812;-122.286;2023-04-03T05:01:59;14.10;78.30
72883;DHT22;61017;37.812;-122.286;2023-04-03T05:03:30;14.10;78.20
72883;DHT22;61017;37.812;-122.286;2023-04-03T05:05:01;14.10;77.90
72883;DHT22;61017;37.812;-122.286;2023-04-03T05:06:32;14.10;77.60
72883;DHT22;61017;37.812;-122.286;2023-04-03T05:08:04;14.10;77.60
72883;DHT22;61017;37.812;-122.286;2023-04-03T05:09:35;14.10;77.20
72883;DHT22;61017;37.812;-122.286;2023-04-03T05:11:06;14.00;77.20
72883;DHT22;61017;37.812;-122.286;2023-04-03T05:12:37;14.00;77.00
72883;DHT22;61017;37.812;-122.286;2023-04-03T05:14:08;14.00;76.80
72883;DHT22;61017;37.812;-122.286;2023-04-03T05:15:39;14.00;76.80
72883;DHT22;61017;37.812;-122.286;2023-04-03T05:17:10;14.00;76.60
72883;DHT22;61017;37.812;-122.286;2023-04-03T05:18:41;14.00;76.40
72883;DHT22;61017;37.812;-122.286;2023-04-03T05:20:12;14.00;76.40
72883;DHT22;61017;37.812;-122.286;2023-04-03T05:21:43;14.00;76.50
72883;DHT22;61017;37.812;-122.286;2023-04-03T05:23:14;14.00;76.40
72883;DHT22;61017;37.812;-122.286;2023-04-03T05:35:45;14.00;75.90
72883;DHT22;61017;37.812;-122.286;2023-04-03T05:37:17;14.00;76.00
72883;DHT22;61017;37.812;-122.286;2023-04-03T05:38:49;14.00;75.90
72883;DHT22;61017;37.812;-122.286;2023-04-03T05:40:21;14.00;75.90
72883;DHT22;61017;37.812;-122.286;2023-04-03T05:41:52;14.00;75.80
72883;DHT22;61017;37.812;-122.286;2023-04-03T05:43:24;14.00;75.60
72883;DHT22;61017;37.812;-122.286;2023-04-03T05:44:56;14.00;75.50
72883;DHT22;61017;37.812;-122.286;2023-04-03T05:46:27;14.00;75.60
72883;DHT22;61017;37.812;-122.286;2023-04-03T05:47:59;14.00;75.60
72883;DHT22;61017;37.812;-122.286;2023-04-03T05:49:31;14.00;75.50
72883;DHT22;61017;37.812;-122.286;2023-04-03T05:51:02;14.00;75.50
72883;DHT22;61017;37.812;-122.286;2023-04-03T05:52:37;14.00;75.50
72883;DHT22;61017;37.812;-122.286;2023-04-03T05:54:19;14.00;75.30
72883;DHT22;61017;37.812;-122.286;2023-04-03T05:55:51;13.90;75.00
72883;DHT22;61017;37.812;-122.286;2023-04-03T05:57:23;13.90;74.80
72883;DHT22;61017;37.812;-122.286;2023-04-03T05:58:55;14.00;75.00
72883;DHT22;61017;37.812;-122.286;2023-04-03T06:00:29;14.00;75.10
72883;DHT22;61017;37.812;-122.286;2023-04-03T06:02:01;14.00;75.00
72883;DHT22;61017;37.812;-122.286;2023-04-03T06:03:32;14.00;74.70
72883;DHT22;61017;37.812;-122.286;2023-04-03T06:05:04;14.00;74.70
72883;DHT22;61017;37.812;-122.286;2023-04-03T06:06:51;14.00;74.50
72883;DHT22;61017;37.812;-122.286;2023-04-03T06:08:23;14.00;74.40
72883;DHT22;61017;37.812;-122.286;2023-04-03T06:09:56;14.00;74.40
72883;DHT22;61017;37.812;-122.286;2023-04-03T06:11:28;14.00;74.30
72883;DHT22;61017;37.812;-122.286;2023-04-03T06:12:59;14.00;74.30
72883;DHT22;61017;37.812;-122.286;2023-04-03T06:14:31;14.00;74.30
72883;DHT22;61017;37.812;-122.286;2023-04-03T06:16:02;13.90;74.10
72883;DHT22;61017;37.812;-122.286;2023-04-03T06:17:34;14.00;74.10
72883;DHT22;61017;37.812;-122.286;2023-04-03T06:19:26;14.00;74.30
72883;DHT22;61017;37.812;-122.286;2023-04-03T06:20:57;14.00;74.40
72883;DHT22;61017;37.812;-122.286;2023-04-03T06:22:29;14.00;74.20
72883;DHT22;61017;37.812;-122.286;2023-04-03T06:24:01;14.00;74.30
72883;DHT22;61017;37.812;-122.286;2023-04-03T06:25:32;14.00;74.20
72883;DHT22;61017;37.812;-122.286;2023-04-03T06:27:04;14.00;74.20
72883;DHT22;61017;37.812;-122.286;2023-04-03T06:28:36;14.00;74.10
72883;DHT22;61017;37.812;-122.286;2023-04-03T06:30:08;14.00;73.90
72883;DHT22;61017;37.812;-122.286;2023-04-03T06:31:39;13.90;73.80
72883;DHT22;61017;37.812;-122.286;2023-04-03T06:33:11;14.00;73.90
72883;DHT22;61017;37.812;-122.286;2023-04-03T06:34:43;13.90;74.00
72883;DHT22;61017;37.812;-122.286;2023-04-03T06:36:14;14.00;74.20
72883;DHT22;61017;37.812;-122.286;2023-04-03T06:37:46;14.00;74.20
72883;DHT22;61017;37.812;-122.286;2023-04-03T06:39:20;14.00;73.90
72883;DHT22;61017;37.812;-122.286;2023-04-03T06:40:52;13.90;73.50
72883;DHT22;61017;37.812;-122.286;2023-04-03T06:42:23;13.90;73.60
72883;DHT22;61017;37.812;-122.286;2023-04-03T06:43:55;13.90;73.50
72883;DHT22;61017;37.812;-122.286;2023-04-03T06:45:27;14.00;73.20
72883;DHT22;61017;37.812;-122.286;2023-04-03T06:46:58;13.90;73.00
72883;DHT22;61017;37.812;-122.286;2023-04-03T06:48:30;13.90;73.00
72883;DHT22;61017;37.812;-122.286;2023-04-03T06:50:02;13.90;72.90
72883;DHT22;61017;37.812;-122.286;2023-04-03T06:51:34;13.90;72.80
72883;DHT22;61017;37.812;-122.286;2023-04-03T06:53:07;13.90;72.60
72883;DHT22;61017;37.812;-122.286;2023-04-03T06:54:40;13.90;72.50
72883;DHT22;61017;37.812;-122.286;2023-04-03T06:56:12;13.90;72.60
72883;DHT22;61017;37.812;-122.286;2023-04-03T06:57:44;13.90;72.30
72883;DHT22;61017;37.812;-122.286;2023-04-03T06:59:15;13.90;72.30
72883;DHT22;61017;37.812;-122.286;2023-04-03T07:00:47;13.90;72.00
72883;DHT22;61017;37.812;-122.286;2023-04-03T07:02:19;13.90;71.90
72883;DHT22;61017;37.812;-122.286;2023-04-03T07:03:50;13.90;72.00
72883;DHT22;61017;37.812;-122.286;2023-04-03T07:05:22;13.90;72.00
72883;DHT22;61017;37.812;-122.286;2023-04-03T07:06:53;13.90;72.10
72883;DHT22;61017;37.812;-122.286;2023-04-03T07:08:25;13.90;72.10
72883;DHT22;61017;37.812;-122.286;2023-04-03T07:09:56;13.90;71.90
72883;DHT22;61017;37.812;-122.286;2023-04-03T07:11:28;13.90;71.80
72883;DHT22;61017;37.812;-122.286;2023-04-03T07:13:00;13.90;71.80
72883;DHT22;61017;37.812;-122.286;2023-04-03T07:14:31;13.90;71.60
72883;DHT22;61017;37.812;-122.286;2023-04-03T07:16:03;13.90;71.60
72883;DHT22;61017;37.812;-122.286;2023-04-03T07:17:35;13.90;71.40
72883;DHT22;61017;37.812;-122.286;2023-04-03T07:19:07;13.90;71.40
72883;DHT22;61017;37.812;-122.286;2023-04-03T07:20:39;13.80;71.40
72883;DHT22;61017;37.812;-122.286;2023-04-03T07:22:10;13.80;71.50
72883;DHT22;61017;37.812;-122.286;2023-04-03T07:23:42;13.90;71.30
72883;DHT22;61017;37.812;-122.286;2023-04-03T07:25:13;13.90;71.40
72883;DHT22;61017;37.812;-122.286;2023-04-03T07:26:51;13.90;71.10
72883;DHT22;61017;37.812;-122.286;2023-04-03T07:28:23;13.90;70.90
72883;DHT22;61017;37.812;-122.286;2023-04-03T07:29:55;13.90;71.00
72883;DHT22;61017;37.812;-122.286;2023-04-03T07:31:26;13.90;71.00
72883;DHT22;61017;37.812;-122.286;2023-04-03T07:32:58;13.80;70.80
72883;DHT22;61017;37.812;-122.286;2023-04-03T07:34:30;13.80;70.80
72883;DHT22;61017;37.812;-122.286;2023-04-03T07:36:02;13.80;70.70
72883;DHT22;61017;37.812;-122.286;2023-04-03T07:37:34;13.80;70.90
72883;DHT22;61017;37.812;-122.286;2023-04-03T07:39:05;13.80;70.70
72883;DHT22;61017;37.812;-122.286;2023-04-03T07:40:37;13.80;70.70
72883;DHT22;61017;37.812;-122.286;2023-04-03T07:42:09;13.80;70.50
72883;DHT22;61017;37.812;-122.286;2023-04-03T07:43:45;13.80;70.60
72883;DHT22;61017;37.812;-122.286;2023-04-03T07:45:17;13.80;70.60
72883;DHT22;61017;37.812;-122.286;2023-04-03T07:46:49;13.80;70.70
72883;DHT22;61017;37.812;-122.286;2023-04-03T07:48:25;13.80;70.60
72883;DHT22;61017;37.812;-122.286;2023-04-03T07:49:57;13.80;70.40
72883;DHT22;61017;37.812;-122.286;2023-04-03T07:51:29;13.80;70.30
72883;DHT22;61017;37.812;-122.286;2023-04-03T07:53:00;13.80;70.10
72883;DHT22;61017;37.812;-122.286;2023-04-03T07:54:32;13.80;70.00
72883;DHT22;61017;37.812;-122.286;2023-04-03T07:56:05;13.80;69.80
72883;DHT22;61017;37.812;-122.286;2023-04-03T07:57:36;13.80;69.90
72883;DHT22;61017;37.812;-122.286;2023-04-03T07:59:09;13.80;70.00
72883;DHT22;61017;37.812;-122.286;2023-04-03T08:00:41;13.80;69.80
72883;DHT22;61017;37.812;-122.286;2023-04-03T08:02:13;13.80;69.20
72883;DHT22;61017;37.812;-122.286;2023-04-03T08:03:44;13.80;69.40
72883;DHT22;61017;37.812;-122.286;2023-04-03T08:05:20;13.80;69.40
72883;DHT22;61017;37.812;-122.286;2023-04-03T08:06:52;13.80;69.10
72883;DHT22;61017;37.812;-122.286;2023-04-03T08:08:24;13.80;69.40
72883;DHT22;61017;37.812;-122.286;2023-04-03T08:09:55;13.70;69.00
72883;DHT22;61017;37.812;-122.286;2023-04-03T09:33:59;13.60;66.60
72883;DHT22;61017;37.812;-122.286;2023-04-03T09:35:35;13.60;66.60
72883;DHT22;61017;37.812;-122.286;2023-04-03T09:37:39;13.60;66.50
72883;DHT22;61017;37.812;-122.286;2023-04-03T09:39:17;13.60;66.40
72883;DHT22;61017;37.812;-122.286;2023-04-03T09:41:02;13.60;66.20
72883;DHT22;61017;37.812;-122.286;2023-04-03T09:42:40;13.60;66.30
72883;DHT22;61017;37.812;-122.286;2023-04-03T09:44:35;13.60;66.20
72883;DHT22;61017;37.812;-122.286;2023-04-03T09:48:09;13.60;66.00
72883;DHT22;61017;37.812;-122.286;2023-04-03T09:50:17;13.60;66.00
72883;DHT22;61017;37.812;-122.286;2023-04-03T09:51:49;13.60;65.80
72883;DHT22;61017;37.812;-122.286;2023-04-03T09:53:32;13.60;65.70
72883;DHT22;61017;37.812;-122.286;2023-04-03T09:55:24;13.60;65.60
72883;DHT22;61017;37.812;-122.286;2023-04-03T09:57:01;13.60;65.40
72883;DHT22;61017;37.812;-122.286;2023-04-03T09:58:40;13.60;65.40
72883;DHT22;61017;37.812;-122.286;2023-04-03T10:00:28;13.60;65.30
72883;DHT22;61017;37.812;-122.286;2023-04-03T10:02:21;13.60;65.20
72883;DHT22;61017;37.812;-122.286;2023-04-03T10:04:12;13.60;65.10
72883;DHT22;61017;37.812;-122.286;2023-04-03T10:05:44;13.50;65.00
72883;DHT22;61017;37.812;-122.286;2023-04-03T10:07:37;13.50;64.60
72883;DHT22;61017;37.812;-122.286;2023-04-03T10:09:26;13.50;64.70
72883;DHT22;61017;37.812;-122.286;2023-04-03T10:11:18;13.50;64.50
72883;DHT22;61017;37.812;-122.286;2023-04-03T10:13:04;13.50;64.50
72883;DHT22;61017;37.812;-122.286;2023-04-03T10:14:53;13.50;64.60
72883;DHT22;61017;37.812;-122.286;2023-04-03T10:16:52;13.50;64.40
72883;DHT22;61017;37.812;-122.286;2023-04-03T10:18:44;13.50;64.50
72883;DHT22;61017;37.812;-122.286;2023-04-03T10:22:30;13.50;64.30
72883;DHT22;61017;37.812;-122.286;2023-04-03T10:34:37;13.50;63.90
72883;DHT22;61017;37.812;-122.286;2023-04-03T10:40:04;13.50;63.40
72883;DHT22;61017;37.812;-122.286;2023-04-03T10:42:00;13.50;63.50
72883;DHT22;61017;37.812;-122.286;2023-04-03T10:43:44;13.50;63.50
72883;DHT22;61017;37.812;-122.286;2023-04-03T10:48:51;13.50;63.60
72883;DHT22;61017;37.812;-122.286;2023-04-03T10:54:43;13.50;63.40
72883;DHT22;61017;37.812;-122.286;2023-04-03T10:57:57;13.50;63.30
72883;DHT22;61017;37.812;-122.286;2023-04-03T10:59:31;13.50;63.20
72883;DHT22;61017;37.812;-122.286;2023-04-03T11:01:09;13.50;63.30
72883;DHT22;61017;37.812;-122.286;2023-04-03T11:02:55;13.50;63.20
72883;DHT22;61017;37.812;-122.286;2023-04-03T11:04:29;13.50;63.30
72883;DHT22;61017;37.812;-122.286;2023-04-03T11:06:05;13.50;63.20
72883;DHT22;61017;37.812;-122.286;2023-04-03T11:07:47;13.50;62.70
72883;DHT22;61017;37.812;-122.286;2023-04-03T11:09:29;13.50;62.90
72883;DHT22;61017;37.812;-122.286;2023-04-03T11:11:07;13.50;63.00
72883;DHT22;61017;37.812;-122.286;2023-04-03T11:12:52;13.50;63.10
72883;DHT22;61017;37.812;-122.286;2023-04-03T11:14:32;13.50;63.00
72883;DHT22;61017;37.812;-122.286;2023-04-03T11:16:05;13.50;62.90
72883;DHT22;61017;37.812;-122.286;2023-04-03T11:17:41;13.40;62.70
72883;DHT22;61017;37.812;-122.286;2023-04-03T11:19:18;13.40;62.50
72883;DHT22;61017;37.812;-122.286;2023-04-03T11:21:11;13.50;62.70
72883;DHT22;61017;37.812;-122.286;2023-04-03T11:23:00;13.50;62.60
72883;DHT22;61017;37.812;-122.286;2023-04-03T11:24:33;13.40;62.40
72883;DHT22;61017;37.812;-122.286;2023-04-03T11:26:18;13.40;62.50
72883;DHT22;61017;37.812;-122.286;2023-04-03T11:27:58;13.40;62.30
72883;DHT22;61017;37.812;-122.286;2023-04-03T11:29:34;13.40;62.20
72883;DHT22;61017;37.812;-122.286;2023-04-03T11:35:09;13.40;61.90
72883;DHT22;61017;37.812;-122.286;2023-04-03T11:36:47;13.40;61.70
72883;DHT22;61017;37.812;-122.286;2023-04-03T11:38:30;13.40;61.70
72883;DHT22;61017;37.812;-122.286;2023-04-03T11:40:07;13.40;61.60
72883;DHT22;61017;37.812;-122.286;2023-04-03T11:41:39;13.40;61.50
72883;DHT22;61017;37.812;-122.286;2023-04-03T11:43:55;13.40;61.50
72883;DHT22;61017;37.812;-122.286;2023-04-03T11:46:16;13.40;61.50
72883;DHT22;61017;37.812;-122.286;2023-04-03T11:47:49;13.40;61.40
72883;DHT22;61017;37.812;-122.286;2023-04-03T11:54:47;13.40;61.50
72883;DHT22;61017;37.812;-122.286;2023-04-03T11:59:37;13.40;61.60
72883;DHT22;61017;37.812;-122.286;2023-04-03T12:01:45;13.40;61.50
72883;DHT22;61017;37.812;-122.286;2023-04-03T12:05:25;13.40;61.40
72883;DHT22;61017;37.812;-122.286;2023-04-03T12:07:11;13.40;61.40
72883;DHT22;61017;37.812;-122.286;2023-04-03T12:08:44;13.40;61.40
72883;DHT22;61017;37.812;-122.286;2023-04-03T12:10:16;13.40;61.50
72883;DHT22;61017;37.812;-122.286;2023-04-03T12:11:49;13.40;61.30
72883;DHT22;61017;37.812;-122.286;2023-04-03T12:13:20;13.40;61.30
72883;DHT22;61017;37.812;-122.286;2023-04-03T12:14:52;13.40;61.30
72883;DHT22;61017;37.812;-122.286;2023-04-03T12:18:53;13.40;60.50
72883;DHT22;61017;37.812;-122.286;2023-04-03T12:21:01;13.30;60.70
72883;DHT22;61017;37.812;-122.286;2023-04-03T12:22:33;13.30;60.80
72883;DHT22;61017;37.812;-122.286;2023-04-03T12:25:50;13.30;60.50
72883;DHT22;61017;37.812;-122.286;2023-04-03T12:28:57;13.30;60.50